createdAt,value
2022-09-03T00:00:54.590Z,0.00
2022-09-03T00:01:54.695Z,0.00
2022-09-03T00:02:54.810Z,0.00
2022-09-03T00:03:54.840Z,0.00
2022-09-03T00:04:54.943Z,0.00
2022-09-03T00:05:55.028Z,0.00
2022-09-03T00:06:55.112Z,0.00
2022-09-03T00:07:55.214Z,0.00
2022-09-03T00:08:55.286Z,0.00
2022-09-03T00:09:55.351Z,0.00
2022-09-03T00:10:55.457Z,0.00
2022-09-03T00:11:55.520Z,0.00
2022-09-03T00:12:55.635Z,0.00
2022-09-03T00:13:55.686Z,0.00
2022-09-03T00:14:55.791Z,0.00
2022-09-03T00:15:55.930Z,0.00
2022-09-03T00:16:55.956Z,0.00
2022-09-03T00:17:56.047Z,0.00
2022-09-03T00:18:56.118Z,0.00
2022-09-03T00:19:56.199Z,0.00
2022-09-03T00:20:56.289Z,0.00
2022-09-03T00:21:56.365Z,0.00
2022-09-03T00:22:56.579Z,0.00
2022-09-03T00:23:56.542Z,0.00
2022-09-03T00:24:56.646Z,0.00
2022-09-03T00:25:56.724Z,0.00
2022-09-03T00:26:56.831Z,0.00
2022-09-03T00:27:56.925Z,0.00
2022-09-03T00:28:58.825Z,0.00
2022-09-03T00:29:57.068Z,0.00
2022-09-03T00:30:57.321Z,0.00
2022-09-03T00:31:57.235Z,0.00
2022-09-03T00:32:57.354Z,0.00
2022-09-03T00:33:57.422Z,0.00
2022-09-03T00:34:57.489Z,0.00
2022-09-03T00:35:57.564Z,0.00
2022-09-03T00:36:57.660Z,0.00
2022-09-03T00:37:57.749Z,0.00
2022-09-03T00:38:57.823Z,0.00
2022-09-03T00:39:57.961Z,0.00
2022-09-03T00:40:57.991Z,0.00
2022-09-03T00:41:58.068Z,0.00
2022-09-03T00:42:58.277Z,0.00
2022-09-03T00:43:58.236Z,0.00
2022-09-03T00:44:58.338Z,0.00
2022-09-03T00:45:58.454Z,0.00
2022-09-03T00:46:58.511Z,0.00
2022-09-03T00:47:58.592Z,0.00
2022-09-03T00:48:58.664Z,0.00
2022-09-03T00:49:58.732Z,0.00
2022-09-03T00:50:58.824Z,0.00
2022-09-03T00:51:58.897Z,0.00
2022-09-03T00:52:59.014Z,0.00
2022-09-03T00:53:59.089Z,0.00
2022-09-03T00:54:59.180Z,0.00
2022-09-03T00:55:59.255Z,0.00
2022-09-03T00:56:59.363Z,0.00
2022-09-03T00:57:59.441Z,0.00
2022-09-03T00:58:59.507Z,0.00
2022-09-03T00:59:59.582Z,0.00
2022-09-03T01:00:59.686Z,0.00
2022-09-03T01:01:59.894Z,0.00
2022-09-03T01:02:59.884Z,0.00
2022-09-03T01:03:59.924Z,0.00
2022-09-03T01:05:00.033Z,0.00
2022-09-03T01:06:01.850Z,0.00
2022-09-03T01:07:00.196Z,0.00
2022-09-03T01:08:00.279Z,0.00
2022-09-03T01:09:00.350Z,0.00
2022-09-03T01:10:00.416Z,0.00
2022-09-03T01:11:00.512Z,0.00
2022-09-03T01:12:00.592Z,0.00
2022-09-03T01:13:00.730Z,0.00
2022-09-03T01:14:00.765Z,0.00
2022-09-03T01:15:00.870Z,0.00
2022-09-03T01:16:01.061Z,0.00
2022-09-03T01:17:01.023Z,0.00
2022-09-03T01:18:01.095Z,0.00
2022-09-03T01:19:01.168Z,0.00
2022-09-03T01:20:01.247Z,0.00
2022-09-03T01:21:01.351Z,0.00
2022-09-03T01:22:01.427Z,0.00
2022-09-03T01:23:01.563Z,0.00
2022-09-03T01:24:01.602Z,0.00
2022-09-03T01:25:01.706Z,0.00
2022-09-03T01:26:01.784Z,0.00
2022-09-03T01:27:01.876Z,0.00
2022-09-03T01:28:01.972Z,0.00
2022-09-03T01:29:02.054Z,0.00
2022-09-03T01:30:02.130Z,0.00
2022-09-03T01:31:02.317Z,0.00
2022-09-03T01:32:02.312Z,0.00
2022-09-03T01:33:02.431Z,0.00
2022-09-03T01:34:02.467Z,0.00
2022-09-03T01:35:02.575Z,0.00
2022-09-03T01:36:02.643Z,0.00
2022-09-03T01:37:02.748Z,0.00
2022-09-03T01:38:02.847Z,0.00
2022-09-03T01:39:02.914Z,0.00
2022-09-03T01:40:03.125Z,0.00
2022-09-03T01:41:03.086Z,0.00
2022-09-03T01:42:03.165Z,0.00
2022-09-03T01:43:03.298Z,0.00
2022-09-03T01:44:03.339Z,0.00
2022-09-03T01:45:03.442Z,0.00
2022-09-03T01:46:03.567Z,0.00
2022-09-03T01:47:03.621Z,0.00
2022-09-03T01:48:03.708Z,0.00
2022-09-03T01:49:03.779Z,0.00
2022-09-03T01:50:03.854Z,0.00
2022-09-03T01:51:03.955Z,0.00
2022-09-03T01:52:04.030Z,0.00
2022-09-03T01:53:04.151Z,0.00
2022-09-03T01:54:04.192Z,0.00
2022-09-03T01:55:04.294Z,0.00
2022-09-03T01:56:04.372Z,0.00
2022-09-03T01:57:04.470Z,0.00
2022-09-03T01:58:04.554Z,0.00
2022-09-03T01:59:04.626Z,0.00
2022-09-03T02:00:04.702Z,0.00
2022-09-03T02:01:04.807Z,0.00
2022-09-03T02:02:04.886Z,0.00
2022-09-03T02:03:05.096Z,0.00
2022-09-03T02:04:05.056Z,0.00
2022-09-03T02:05:05.164Z,0.00
2022-09-03T02:06:05.241Z,0.00
2022-09-03T02:07:05.346Z,0.00
2022-09-03T02:08:05.443Z,0.00
2022-09-03T02:09:05.501Z,0.00
2022-09-03T02:10:05.578Z,0.00
2022-09-03T02:11:05.667Z,0.00
2022-09-03T02:12:05.745Z,0.00
2022-09-03T02:13:05.868Z,0.00
2022-09-03T02:14:05.926Z,0.00
2022-09-03T02:15:06.035Z,0.00
2022-09-03T02:16:06.189Z,0.00
2022-09-03T02:17:06.202Z,0.00
2022-09-03T02:18:06.292Z,0.00
2022-09-03T02:19:06.364Z,0.00
2022-09-03T02:20:06.441Z,0.00
2022-09-03T02:21:06.547Z,0.00
2022-09-03T02:22:06.627Z,0.00
2022-09-03T02:23:06.747Z,0.00
2022-09-03T02:24:06.787Z,0.00
2022-09-03T02:25:06.891Z,0.00
2022-09-03T02:26:06.966Z,0.00
2022-09-03T02:27:07.068Z,0.00
2022-09-03T02:28:11.210Z,0.00
2022-09-03T02:29:07.253Z,0.00
2022-09-03T02:30:07.333Z,0.00
2022-09-03T02:31:07.454Z,0.00
2022-09-03T02:32:07.501Z,0.00
2022-09-03T02:33:07.576Z,0.00
2022-09-03T02:34:07.660Z,0.00
2022-09-03T02:35:07.735Z,0.00
2022-09-03T02:36:07.837Z,0.00
2022-09-03T02:37:07.912Z,0.00
2022-09-03T02:38:08.037Z,0.00
2022-09-03T02:39:08.074Z,0.00
2022-09-03T02:40:08.239Z,0.00
2022-09-03T02:41:08.250Z,0.00
2022-09-03T02:42:08.354Z,0.00
2022-09-03T02:43:08.456Z,0.00
2022-09-03T02:44:08.515Z,0.00
2022-09-03T02:45:08.598Z,0.00
2022-09-03T02:46:08.722Z,0.00
2022-09-03T02:47:08.768Z,0.00
2022-09-03T02:48:08.888Z,0.00
2022-09-03T02:49:08.949Z,0.00
2022-09-03T02:50:09.051Z,0.00
2022-09-03T02:51:14.125Z,0.00
2022-09-03T02:52:09.226Z,0.00
2022-09-03T02:53:09.317Z,0.00
2022-09-03T02:54:09.389Z,0.00
2022-09-03T02:55:09.468Z,0.00
2022-09-03T02:56:09.570Z,0.00
2022-09-03T02:57:09.648Z,0.00
2022-09-03T02:58:09.769Z,0.00
2022-09-03T02:59:09.814Z,0.00
2022-09-03T03:00:09.901Z,0.00
2022-09-03T03:01:09.994Z,0.00
2022-09-03T03:02:10.092Z,0.00
2022-09-03T03:03:10.148Z,0.00
2022-09-03T03:04:10.217Z,0.00
2022-09-03T03:05:10.300Z,0.00
2022-09-03T03:06:10.387Z,0.00
2022-09-03T03:07:10.467Z,0.00
2022-09-03T03:08:10.553Z,0.00
2022-09-03T03:09:10.625Z,0.00
2022-09-03T03:10:10.736Z,0.00
2022-09-03T03:11:10.808Z,0.00
2022-09-03T03:12:10.917Z,0.00
2022-09-03T03:13:11.263Z,0.00
2022-09-03T03:14:11.089Z,0.00
2022-09-03T03:15:11.167Z,0.00
2022-09-03T03:16:11.311Z,0.00
2022-09-03T03:17:11.322Z,0.00
2022-09-03T03:18:11.434Z,0.00
2022-09-03T03:19:11.497Z,0.00
2022-09-03T03:20:11.603Z,0.00
2022-09-03T03:21:11.685Z,0.00
2022-09-03T03:22:11.783Z,0.00
2022-09-03T03:23:11.874Z,0.00
2022-09-03T03:24:11.970Z,0.00
2022-09-03T03:25:12.045Z,0.00
2022-09-03T03:26:12.121Z,0.00
2022-09-03T03:27:12.201Z,0.00
2022-09-03T03:28:12.318Z,0.00
2022-09-03T03:29:12.389Z,0.00
2022-09-03T03:30:12.492Z,0.00
2022-09-03T03:31:12.582Z,0.00
2022-09-03T03:32:12.660Z,0.00
2022-09-03T03:33:13.054Z,0.00
2022-09-03T03:34:12.839Z,0.00
2022-09-03T03:35:12.914Z,0.00
2022-09-03T03:36:13.006Z,0.00
2022-09-03T03:37:13.083Z,0.00
2022-09-03T03:38:13.199Z,0.00
2022-09-03T03:39:13.285Z,0.00
2022-09-03T03:40:13.357Z,0.00
2022-09-03T03:41:13.458Z,0.00
2022-09-03T03:42:13.533Z,0.00
2022-09-03T03:43:13.653Z,0.00
2022-09-03T03:44:13.689Z,0.00
2022-09-03T03:45:13.779Z,0.00
2022-09-03T03:46:13.889Z,0.00
2022-09-03T03:47:13.939Z,0.00
2022-09-03T03:48:14.021Z,0.00
2022-09-03T03:49:14.096Z,0.00
2022-09-03T03:50:14.174Z,0.00
2022-09-03T03:51:14.267Z,0.00
2022-09-03T03:52:14.347Z,0.00
2022-09-03T03:53:14.748Z,0.00
2022-09-03T03:54:14.580Z,0.00
2022-09-03T03:55:15.868Z,0.00
2022-09-03T03:56:14.670Z,0.00
2022-09-03T03:57:14.777Z,0.00
2022-09-03T03:58:14.874Z,0.00
2022-09-03T03:59:14.940Z,0.00
2022-09-03T04:00:15.018Z,0.00
2022-09-03T04:01:15.190Z,0.00
2022-09-03T04:02:15.206Z,0.00
2022-09-03T04:03:17.220Z,0.00
2022-09-03T04:04:15.337Z,0.00
2022-09-03T04:05:15.437Z,0.00
2022-09-03T04:06:15.494Z,0.00
2022-09-03T04:07:15.597Z,0.00
2022-09-03T04:08:15.720Z,0.00
2022-09-03T04:09:15.803Z,0.00
2022-09-03T04:10:15.847Z,0.00
2022-09-03T04:11:15.958Z,4.00
2022-09-03T04:12:16.023Z,4.00
2022-09-03T04:13:16.117Z,0.00
2022-09-03T04:14:16.214Z,0.00
2022-09-03T04:15:16.290Z,4.00
2022-09-03T04:16:16.417Z,0.00
2022-09-03T04:17:16.457Z,4.00
2022-09-03T04:18:16.531Z,4.00
2022-09-03T04:19:16.658Z,4.00
2022-09-03T04:20:16.726Z,4.00
2022-09-03T04:21:16.803Z,4.00
2022-09-03T04:22:16.886Z,8.00
2022-09-03T04:23:16.988Z,8.00
2022-09-03T04:24:17.089Z,8.00
2022-09-03T04:25:17.140Z,12.00
2022-09-03T04:26:17.196Z,12.00
2022-09-03T04:27:17.305Z,12.00
2022-09-03T04:28:17.378Z,16.00
2022-09-03T04:29:17.509Z,16.00
2022-09-03T04:30:17.544Z,20.00
2022-09-03T04:31:17.737Z,24.00
2022-09-03T04:32:17.708Z,28.00
2022-09-03T04:33:17.815Z,32.00
2022-09-03T04:34:17.924Z,36.00
2022-09-03T04:35:17.987Z,40.00
2022-09-03T04:36:18.059Z,44.00
2022-09-03T04:37:18.152Z,52.00
2022-09-03T04:38:18.224Z,56.00
2022-09-03T04:39:18.397Z,64.00
2022-09-03T04:40:18.406Z,72.00
2022-09-03T04:41:18.482Z,84.00
2022-09-03T04:42:18.560Z,96.00
2022-09-03T04:43:18.647Z,108.00
2022-09-03T04:44:18.739Z,120.00
2022-09-03T04:45:18.927Z,136.00
2022-09-03T04:46:18.907Z,144.00
2022-09-03T04:47:18.965Z,160.00
2022-09-03T04:48:19.080Z,168.00
2022-09-03T04:49:19.153Z,180.00
2022-09-03T04:50:19.188Z,192.00
2022-09-03T04:51:19.287Z,200.00
2022-09-03T04:52:19.358Z,208.00
2022-09-03T04:53:19.460Z,216.00
2022-09-03T04:54:19.545Z,228.00
2022-09-03T04:55:19.613Z,240.00
2022-09-03T04:56:19.690Z,256.00
2022-09-03T04:57:19.795Z,268.00
2022-09-03T04:58:19.953Z,288.00
2022-09-03T04:59:19.986Z,308.00
2022-09-03T05:00:20.019Z,324.00
2022-09-03T05:01:20.214Z,344.00
2022-09-03T05:02:20.228Z,360.00
2022-09-03T05:03:20.289Z,384.00
2022-09-03T05:04:20.384Z,404.00
2022-09-03T05:05:20.471Z,432.00
2022-09-03T05:06:20.539Z,460.00
2022-09-03T05:07:20.639Z,488.00
2022-09-03T05:08:20.718Z,520.00
2022-09-03T05:09:20.831Z,552.00
2022-09-03T05:10:20.897Z,584.00
2022-09-03T05:11:20.999Z,612.00
2022-09-03T05:12:21.073Z,636.00
2022-09-03T05:13:21.176Z,660.00
2022-09-03T05:14:21.264Z,684.00
2022-09-03T05:15:21.333Z,724.00
2022-09-03T05:16:21.469Z,768.00
2022-09-03T05:17:21.483Z,816.00
2022-09-03T05:18:21.586Z,868.00
2022-09-03T05:19:21.655Z,912.00
2022-09-03T05:20:21.721Z,948.00
2022-09-03T05:21:21.793Z,972.00
2022-09-03T05:22:21.866Z,984.00
2022-09-03T05:23:21.973Z,996.00
2022-09-03T05:24:22.058Z,1008.00
2022-09-03T05:25:22.136Z,1000.00
2022-09-03T05:26:22.215Z,992.00
2022-09-03T05:27:22.301Z,996.00
2022-09-03T05:28:22.403Z,1028.00
2022-09-03T05:29:22.458Z,1084.00
2022-09-03T05:30:22.494Z,1160.00
2022-09-03T05:31:22.640Z,1240.00
2022-09-03T05:32:22.682Z,1308.00
2022-09-03T05:33:22.782Z,1368.00
2022-09-03T05:34:22.868Z,1416.00
2022-09-03T05:35:25.949Z,1460.00
2022-09-03T05:36:22.992Z,1512.00
2022-09-03T05:37:23.091Z,1576.00
2022-09-03T05:38:23.217Z,1652.00
2022-09-03T05:39:23.336Z,1740.00
2022-09-03T05:40:23.313Z,1844.00
2022-09-03T05:41:23.387Z,1968.00
2022-09-03T05:42:23.459Z,2100.00
2022-09-03T05:43:23.568Z,2228.00
2022-09-03T05:44:23.656Z,2360.00
2022-09-03T05:45:23.777Z,2500.00
2022-09-03T05:46:23.792Z,2648.00
2022-09-03T05:47:23.901Z,2808.00
2022-09-03T05:48:24.127Z,2988.00
2022-09-03T05:49:24.092Z,3196.00
2022-09-03T05:50:24.128Z,3420.00
2022-09-03T05:51:24.237Z,3616.00
2022-09-03T05:52:24.309Z,3824.00
2022-09-03T05:53:24.461Z,4096.00
2022-09-03T05:54:24.507Z,4348.00
2022-09-03T05:55:24.554Z,4464.00
2022-09-03T05:56:24.627Z,4488.00
2022-09-03T05:57:24.734Z,4480.00
2022-09-03T05:58:24.810Z,4472.00
2022-09-03T05:59:24.941Z,4476.00
2022-09-03T06:00:24.979Z,4476.00
2022-09-03T06:01:25.084Z,4464.00
2022-09-03T06:02:25.319Z,4452.00
2022-09-03T06:03:25.469Z,4464.00
2022-09-03T06:04:25.327Z,4492.00
2022-09-03T06:05:25.391Z,4512.00
2022-09-03T06:06:25.468Z,4524.00
2022-09-03T06:07:25.560Z,4608.00
2022-09-03T06:08:25.632Z,4740.00
2022-09-03T06:09:25.762Z,4904.00
2022-09-03T06:10:30.054Z,5136.00
2022-09-03T06:11:25.886Z,5416.00
2022-09-03T06:12:25.960Z,5704.00
2022-09-03T06:13:26.064Z,5912.00
2022-09-03T06:14:26.161Z,6076.00
2022-09-03T06:15:26.223Z,6308.00
2022-09-03T06:16:31.852Z,6564.00
2022-09-03T06:17:26.381Z,6772.00
2022-09-03T06:18:26.454Z,6888.00
2022-09-03T06:19:26.583Z,6988.00
2022-09-03T06:20:26.630Z,6944.00
2022-09-03T06:21:26.728Z,6964.00
2022-09-03T06:22:26.802Z,6892.00
2022-09-03T06:23:26.901Z,6744.00
2022-09-03T06:24:27.977Z,6664.00
2022-09-03T06:25:27.065Z,6672.00
2022-09-03T06:26:27.124Z,6680.00
2022-09-03T06:27:27.234Z,6736.00
2022-09-03T06:28:27.309Z,6728.00
2022-09-03T06:29:27.405Z,6520.00
2022-09-03T06:30:27.450Z,6328.00
2022-09-03T06:31:27.622Z,6120.00
2022-09-03T06:32:27.643Z,5900.00
2022-09-03T06:33:27.712Z,5696.00
2022-09-03T06:34:27.799Z,5548.00
2022-09-03T06:35:27.870Z,5472.00
2022-09-03T06:36:27.922Z,5472.00
2022-09-03T06:37:28.033Z,5544.00
2022-09-03T06:38:28.091Z,5656.00
2022-09-03T06:39:28.266Z,5776.00
2022-09-03T06:40:28.242Z,5836.00
2022-09-03T06:41:28.356Z,5856.00
2022-09-03T06:42:28.438Z,5868.00
2022-09-03T06:43:28.508Z,5924.00
2022-09-03T06:44:28.597Z,6064.00
2022-09-03T06:45:28.711Z,6268.00
2022-09-03T06:46:28.735Z,6492.00
2022-09-03T06:47:28.846Z,6684.00
2022-09-03T06:48:28.917Z,6932.00
2022-09-03T06:49:29.037Z,7344.00
2022-09-03T06:50:32.666Z,7720.00
2022-09-03T06:51:29.190Z,7792.00
2022-09-03T06:52:29.262Z,7812.00
2022-09-03T06:53:32.084Z,7832.00
2022-09-03T06:54:29.414Z,7972.00
2022-09-03T06:55:29.483Z,8144.00
2022-09-03T06:56:29.558Z,8228.00
2022-09-03T06:57:29.670Z,8436.00
2022-09-03T06:58:29.742Z,8672.00
2022-09-03T06:59:29.864Z,8880.00
2022-09-03T07:00:35.587Z,8976.00
2022-09-03T07:01:30.226Z,8840.00
2022-09-03T07:02:30.050Z,8588.00
2022-09-03T07:03:30.130Z,8408.00
2022-09-03T07:04:30.225Z,8348.00
2022-09-03T07:05:30.289Z,8300.00
2022-09-03T07:06:30.363Z,8248.00
2022-09-03T07:07:30.447Z,8272.00
2022-09-03T07:08:30.518Z,8156.00
2022-09-03T07:09:30.619Z,7976.00
2022-09-03T07:10:30.686Z,7652.00
2022-09-03T07:11:30.760Z,7368.00
2022-09-03T07:12:30.835Z,7092.00
2022-09-03T07:13:30.946Z,6844.00
2022-09-03T07:14:31.009Z,6664.00
2022-09-03T07:15:31.079Z,6584.00
2022-09-03T07:16:31.195Z,6552.00
2022-09-03T07:17:31.229Z,6540.00
2022-09-03T07:18:31.302Z,6504.00
2022-09-03T07:19:31.426Z,6460.00
2022-09-03T07:20:31.474Z,6432.00
2022-09-03T07:21:31.543Z,6388.00
2022-09-03T07:22:31.812Z,6388.00
2022-09-03T07:23:31.719Z,6380.00
2022-09-03T07:24:31.847Z,6384.00
2022-09-03T07:25:31.909Z,6388.00
2022-09-03T07:26:31.958Z,6376.00
2022-09-03T07:27:32.026Z,6380.00
2022-09-03T07:28:32.106Z,6356.00
2022-09-03T07:29:32.234Z,6272.00
2022-09-03T07:30:32.269Z,6188.00
2022-09-03T07:31:32.411Z,6092.00
2022-09-03T07:32:32.455Z,5988.00
2022-09-03T07:33:33.898Z,5880.00
2022-09-03T07:34:32.650Z,5764.00
2022-09-03T07:35:32.719Z,5652.00
2022-09-03T07:36:32.792Z,5536.00
2022-09-03T07:37:32.883Z,5424.00
2022-09-03T07:38:32.964Z,5308.00
2022-09-03T07:39:33.117Z,5200.00
2022-09-03T07:40:33.124Z,5108.00
2022-09-03T07:41:33.206Z,5040.00
2022-09-03T07:42:33.276Z,5004.00
2022-09-03T07:43:33.386Z,4996.00
2022-09-03T07:44:33.468Z,5020.00
2022-09-03T07:45:33.554Z,4980.00
2022-09-03T07:46:33.660Z,4904.00
2022-09-03T07:47:33.728Z,4800.00
2022-09-03T07:48:37.325Z,4708.00
2022-09-03T07:49:33.929Z,4620.00
2022-09-03T07:50:33.967Z,4556.00
2022-09-03T07:51:34.054Z,4516.00
2022-09-03T07:52:34.125Z,4480.00
2022-09-03T07:53:34.233Z,4424.00
2022-09-03T07:54:34.314Z,4360.00
2022-09-03T07:55:34.372Z,4356.00
2022-09-03T07:56:34.481Z,4368.00
2022-09-03T07:57:34.558Z,4380.00
2022-09-03T07:58:34.654Z,4384.00
2022-09-03T07:59:34.754Z,4376.00
2022-09-03T08:00:34.929Z,4368.00
2022-09-03T08:01:34.861Z,4360.00
2022-09-03T08:02:34.960Z,4340.00
2022-09-03T08:03:35.036Z,4340.00
2022-09-03T08:04:35.121Z,4360.00
2022-09-03T08:05:35.169Z,4388.00
2022-09-03T08:06:35.244Z,4440.00
2022-09-03T08:07:35.318Z,4504.00
2022-09-03T08:08:35.567Z,4568.00
2022-09-03T08:09:35.478Z,4640.00
2022-09-03T08:10:35.552Z,4716.00
2022-09-03T08:11:35.625Z,4772.00
2022-09-03T08:12:35.733Z,4832.00
2022-09-03T08:13:35.805Z,4896.00
2022-09-03T08:14:35.904Z,4964.00
2022-09-03T08:15:35.933Z,5048.00
2022-09-03T08:16:36.081Z,5140.00
2022-09-03T08:17:36.087Z,5256.00
2022-09-03T08:18:36.181Z,5404.00
2022-09-03T08:19:36.268Z,5564.00
2022-09-03T08:20:36.334Z,5756.00
2022-09-03T08:21:36.407Z,6012.00
2022-09-03T08:22:36.516Z,6328.00
2022-09-03T08:23:36.590Z,6764.00
2022-09-03T08:24:36.707Z,7244.00
2022-09-03T08:25:36.744Z,7824.00
2022-09-03T08:26:36.858Z,8680.00
2022-09-03T08:27:36.921Z,9924.00
2022-09-03T08:28:37.017Z,12740.00
2022-09-03T08:29:37.110Z,11164.00
2022-09-03T08:30:37.180Z,12212.00
2022-09-03T08:31:37.275Z,13996.00
2022-09-03T08:32:37.318Z,14920.00
2022-09-03T08:33:37.389Z,16768.00
2022-09-03T08:34:37.503Z,16608.00
2022-09-03T08:35:37.584Z,22848.00
2022-09-03T08:36:37.651Z,20416.00
2022-09-03T08:37:37.724Z,17600.00
2022-09-03T08:38:37.810Z,16576.00
2022-09-03T08:39:37.953Z,16320.00
2022-09-03T08:40:37.985Z,15956.00
2022-09-03T08:41:38.048Z,15788.00
2022-09-03T08:42:38.145Z,15652.00
2022-09-03T08:43:38.216Z,15416.00
2022-09-03T08:44:38.326Z,15204.00
2022-09-03T08:45:38.391Z,15048.00
2022-09-03T08:46:38.499Z,15072.00
2022-09-03T08:47:38.535Z,15156.00
2022-09-03T08:48:38.609Z,15344.00
2022-09-03T08:49:38.698Z,15880.00
2022-09-03T08:50:38.759Z,16384.00
2022-09-03T08:51:38.849Z,16672.00
2022-09-03T08:52:38.945Z,17024.00
2022-09-03T08:53:39.008Z,17376.00
2022-09-03T08:54:39.123Z,17856.00
2022-09-03T08:55:39.190Z,18496.00
2022-09-03T08:56:39.289Z,19776.00
2022-09-03T08:57:39.366Z,28128.00
2022-09-03T08:58:39.466Z,31968.00
2022-09-03T08:59:39.553Z,43776.00
2022-09-03T09:00:39.617Z,37472.00
2022-09-03T09:01:39.832Z,39072.00
2022-09-03T09:02:39.990Z,27680.00
2022-09-03T09:03:39.828Z,26272.00
2022-09-03T09:04:39.955Z,26528.00
2022-09-03T09:05:39.993Z,26112.00
2022-09-03T09:06:40.089Z,24992.00
2022-09-03T09:07:40.168Z,24704.00
2022-09-03T09:08:40.263Z,25056.00
2022-09-03T09:09:40.376Z,28384.00
2022-09-03T09:10:40.427Z,38272.00
2022-09-03T09:11:40.480Z,31904.00
2022-09-03T09:12:45.864Z,45632.00
2022-09-03T09:13:40.664Z,30080.00
2022-09-03T09:14:40.793Z,27744.00
2022-09-03T09:15:40.873Z,28160.00
2022-09-03T09:16:40.896Z,36128.00
2022-09-03T09:17:40.968Z,45440.00
2022-09-03T09:18:41.069Z,36832.00
2022-09-03T09:19:41.150Z,46464.00
2022-09-03T09:20:41.215Z,61120.00
2022-09-03T09:21:41.286Z,67840.00
2022-09-03T09:22:41.385Z,48544.00
2022-09-03T09:23:41.451Z,41088.00
2022-09-03T09:24:41.564Z,43936.00
2022-09-03T09:25:41.629Z,69408.00
2022-09-03T09:26:41.719Z,51808.00
2022-09-03T09:27:41.783Z,21344.00
2022-09-03T09:28:41.878Z,19104.00
2022-09-03T09:29:41.975Z,20448.00
2022-09-03T09:30:42.042Z,26112.00
2022-09-03T09:31:42.168Z,24192.00
2022-09-03T09:32:42.222Z,29664.00
2022-09-03T09:33:42.292Z,37632.00
2022-09-03T09:34:42.411Z,41824.00
2022-09-03T09:35:42.455Z,74944.00
2022-09-03T09:36:42.554Z,42528.00
2022-09-03T09:37:42.631Z,43904.00
2022-09-03T09:38:42.730Z,56448.00
2022-09-03T09:39:42.844Z,63680.00
2022-09-03T09:40:45.153Z,69280.00
2022-09-03T09:41:42.922Z,66624.00
2022-09-03T09:42:43.023Z,64736.00
2022-09-03T09:43:43.092Z,63232.00
2022-09-03T09:44:43.210Z,55712.00
2022-09-03T09:45:43.275Z,63840.00
2022-09-03T09:46:43.394Z,64544.00
2022-09-03T09:47:43.428Z,65920.00
2022-09-03T09:48:43.525Z,67168.00
2022-09-03T09:49:43.617Z,67168.00
2022-09-03T09:50:43.690Z,66144.00
2022-09-03T09:51:43.763Z,68320.00
2022-09-03T09:52:43.852Z,66752.00
2022-09-03T09:53:43.930Z,63808.00
2022-09-03T09:54:44.045Z,58208.00
2022-09-03T09:55:44.119Z,56672.00
2022-09-03T09:56:44.219Z,42144.00
2022-09-03T09:57:44.299Z,60128.00
2022-09-03T09:58:44.396Z,46464.00
2022-09-03T09:59:44.484Z,37216.00
2022-09-03T10:00:44.554Z,53664.00
2022-09-03T10:01:44.691Z,59072.00
2022-09-03T10:02:44.772Z,57888.00
2022-09-03T10:03:44.794Z,57920.00
2022-09-03T10:04:44.916Z,59040.00
2022-09-03T10:05:44.955Z,59328.00
2022-09-03T10:06:45.055Z,49312.00
2022-09-03T10:07:45.128Z,37216.00
2022-09-03T10:08:45.205Z,50144.00
2022-09-03T10:09:45.299Z,52928.00
2022-09-03T10:10:45.367Z,53280.00
2022-09-03T10:11:45.450Z,54304.00
2022-09-03T10:12:45.529Z,54208.00
2022-09-03T10:13:45.604Z,53568.00
2022-09-03T10:14:45.728Z,52448.00
2022-09-03T10:15:45.799Z,51872.00
2022-09-03T10:16:45.853Z,52064.00
2022-09-03T10:17:45.910Z,50272.00
2022-09-03T10:18:46.011Z,49280.00
2022-09-03T10:19:46.095Z,48416.00
2022-09-03T10:20:46.171Z,45984.00
2022-09-03T10:21:46.245Z,46048.00
2022-09-03T10:22:47.122Z,44608.00
2022-09-03T10:23:46.406Z,26144.00
2022-09-03T10:24:46.520Z,29632.00
2022-09-03T10:25:46.553Z,27136.00
2022-09-03T10:26:46.639Z,35456.00
2022-09-03T10:27:46.709Z,35200.00
2022-09-03T10:28:46.783Z,40608.00
2022-09-03T10:29:46.884Z,39232.00
2022-09-03T10:30:47.006Z,26944.00
2022-09-03T10:31:47.041Z,25568.00
2022-09-03T10:32:48.577Z,28320.00
2022-09-03T10:33:47.193Z,23040.00
2022-09-03T10:34:47.305Z,26976.00
2022-09-03T10:35:47.360Z,27488.00
2022-09-03T10:36:47.446Z,23776.00
2022-09-03T10:37:47.520Z,24000.00
2022-09-03T10:38:47.607Z,21504.00
2022-09-03T10:39:52.053Z,25920.00
2022-09-03T10:40:47.771Z,21472.00
2022-09-03T10:41:47.859Z,20704.00
2022-09-03T10:42:47.958Z,19456.00
2022-09-03T10:43:48.028Z,17856.00
2022-09-03T10:44:48.140Z,16352.00
2022-09-03T10:45:48.206Z,15260.00
2022-09-03T10:46:48.320Z,14704.00
2022-09-03T10:47:48.377Z,14544.00
2022-09-03T10:48:48.476Z,14568.00
2022-09-03T10:49:48.560Z,14684.00
2022-09-03T10:50:48.629Z,14880.00
2022-09-03T10:51:49.664Z,15196.00
2022-09-03T10:52:48.779Z,15464.00
2022-09-03T10:53:48.848Z,15672.00
2022-09-03T10:54:48.965Z,15824.00
2022-09-03T10:55:49.030Z,15828.00
2022-09-03T10:56:49.130Z,15736.00
2022-09-03T10:57:49.200Z,15676.00
2022-09-03T10:58:49.301Z,15744.00
2022-09-03T10:59:49.395Z,16028.00
2022-09-03T11:00:49.463Z,16608.00
2022-09-03T11:01:49.626Z,17280.00
2022-09-03T11:02:49.662Z,18016.00
2022-09-03T11:03:49.666Z,18688.00
2022-09-03T11:04:49.798Z,19488.00
2022-09-03T11:05:49.832Z,20192.00
2022-09-03T11:06:49.929Z,20992.00
2022-09-03T11:07:50.000Z,21312.00
2022-09-03T11:08:50.100Z,22016.00
2022-09-03T11:09:50.202Z,21120.00
2022-09-03T11:10:50.265Z,20512.00
2022-09-03T11:11:50.335Z,19552.00
2022-09-03T11:12:53.103Z,18400.00
2022-09-03T11:13:50.506Z,17344.00
2022-09-03T11:14:50.626Z,16520.00
2022-09-03T11:15:50.691Z,16032.00
2022-09-03T11:16:50.756Z,15512.00
2022-09-03T11:17:50.824Z,15036.00
2022-09-03T11:18:50.921Z,14696.00
2022-09-03T11:19:51.010Z,14448.00
2022-09-03T11:20:51.075Z,14132.00
2022-09-03T11:21:51.148Z,13808.00
2022-09-03T11:22:51.243Z,13588.00
2022-09-03T11:23:55.033Z,13532.00
2022-09-03T11:24:51.431Z,13588.00
2022-09-03T11:25:51.498Z,13576.00
2022-09-03T11:26:51.593Z,13800.00
2022-09-03T11:27:56.326Z,13952.00
2022-09-03T11:28:51.759Z,13952.00
2022-09-03T11:29:51.848Z,14612.00
2022-09-03T11:30:52.157Z,16032.00
2022-09-03T11:31:52.001Z,16800.00
2022-09-03T11:32:52.857Z,17184.00
2022-09-03T11:33:52.174Z,17408.00
2022-09-03T11:34:52.299Z,17888.00
2022-09-03T11:35:52.338Z,18336.00
2022-09-03T11:36:52.436Z,17856.00
2022-09-03T11:37:52.515Z,16800.00
2022-09-03T11:38:52.610Z,15540.00
2022-09-03T11:39:52.749Z,14196.00
2022-09-03T11:40:52.775Z,12228.00
2022-09-03T11:41:52.846Z,11956.00
2022-09-03T11:42:52.933Z,11360.00
2022-09-03T11:43:53.002Z,10692.00
2022-09-03T11:44:53.117Z,10348.00
2022-09-03T11:45:53.231Z,10308.00
2022-09-03T11:46:53.278Z,10380.00
2022-09-03T11:47:53.350Z,11228.00
2022-09-03T11:48:53.447Z,11880.00
2022-09-03T11:49:53.545Z,12544.00
2022-09-03T11:50:53.633Z,12700.00
2022-09-03T11:51:53.704Z,12452.00
2022-09-03T11:52:53.794Z,12136.00
2022-09-03T11:53:53.864Z,10652.00
2022-09-03T11:54:53.977Z,10456.00
2022-09-03T11:55:54.013Z,9728.00
2022-09-03T11:56:54.093Z,9252.00
2022-09-03T11:57:54.155Z,9956.00
2022-09-03T11:58:54.254Z,8448.00
2022-09-03T11:59:54.350Z,7940.00
2022-09-03T12:00:54.415Z,7620.00
2022-09-03T12:01:54.489Z,8128.00
2022-09-03T12:02:58.765Z,7704.00
2022-09-03T12:03:54.668Z,7388.00
2022-09-03T12:04:55.955Z,6988.00
2022-09-03T12:05:54.833Z,6960.00
2022-09-03T12:06:54.940Z,6728.00
2022-09-03T12:07:54.999Z,6948.00
2022-09-03T12:08:55.106Z,6424.00
2022-09-03T12:09:55.193Z,6456.00
2022-09-03T12:10:55.261Z,6540.00
2022-09-03T12:11:55.344Z,6108.00
2022-09-03T12:12:55.434Z,7100.00
2022-09-03T12:13:55.520Z,6856.00
2022-09-03T12:14:55.615Z,6892.00
2022-09-03T12:15:55.722Z,6756.00
2022-09-03T12:16:55.737Z,7308.00
2022-09-03T12:17:55.831Z,7512.00
2022-09-03T12:18:55.902Z,7804.00
2022-09-03T12:19:56.032Z,8044.00
2022-09-03T12:20:56.068Z,8256.00
2022-09-03T12:21:56.173Z,7488.00
2022-09-03T12:22:56.267Z,8092.00
2022-09-03T12:23:58.494Z,7836.00
2022-09-03T12:24:56.437Z,7172.00
2022-09-03T12:25:56.501Z,6980.00
2022-09-03T12:26:56.573Z,6680.00